Time;durP1;ratioP1;P1;durP2;ratioP2;P2;SDS_P1;SDS_P2;PMS_P1;PMS_P2;Temp;Humidity;BMP_temperature;BMP_pressure;BME280_temperature;BME280_humidity;BME280_pressure;Samples;Min_cycle;Max_cycle;Signal;HPM_P1;HPM_P2
2021/05/06 04:13:22;;;;;;;1.77;1.67;;;4.30;96.30;;;;;;4900612;29;20408;-80
2021/05/06 04:18:30;;;;;;;4.50;3.23;;;4.90;96.30;;;;;;4896937;29;20909;-73
2021/05/06 04:36:52;;;;;;;5.03;1.80;;;3.70;96.30;;;;;;4878419;29;20908;-74
2021/05/06 04:39:26;;;;;;;3.00;2.17;;;3.30;96.30;;;;;;4878992;29;20398;-73
2021/05/06 04:42:04;;;;;;;4.27;2.80;;;3.20;96.30;;;;;;4878818;29;20417;-73
2021/05/06 04:50:22;;;;;;;2.57;1.70;;;4.20;96.30;;;;;;4878127;29;20494;-74
2021/05/06 04:55:39;;;;;;;6.43;4.23;;;7.00;96.30;;;;;;4877260;29;20568;-74
2021/05/06 05:05:57;;;;;;;4.00;2.70;;;6.70;96.30;;;;;;4878151;29;20964;-75
2021/05/06 05:08:23;;;;;;;6.63;4.30;;;6.30;96.30;;;;;;4877744;29;20422;-74
2021/05/06 05:11:04;;;;;;;14.87;8.60;;;5.70;96.30;;;;;;4877566;29;20178;-74
2021/05/06 05:27:01;;;;;;;7.07;3.23;;;5.40;96.30;;;;;;4901804;29;20503;-73
2021/05/06 05:29:26;;;;;;;5.13;3.97;;;5.70;96.30;;;;;;4910598;29;20464;-73
2021/05/06 05:31:52;;;;;;;3.50;1.67;;;5.70;96.30;;;;;;4879434;29;20199;-74
2021/05/06 05:34:26;;;;;;;3.20;1.83;;;5.50;96.30;;;;;;4878106;29;20177;-74
2021/05/06 05:36:55;;;;;;;10.93;6.93;;;5.50;96.30;;;;;;4877886;29;20284;-74
2021/05/06 05:39:31;;;;;;;4.83;2.67;;;6.30;96.30;;;;;;4876304;29;20414;-74
2021/05/06 05:42:19;;;;;;;6.77;5.03;;;6.80;96.30;;;;;;4894875;29;20448;-74
2021/05/06 05:55:25;;;;;;;3.10;1.67;;;6.40;96.30;;;;;;4893898;29;20456;-74
2021/05/06 05:57:52;;;;;;;4.87;3.23;;;6.20;96.30;;;;;;4895406;29;20429;-74
2021/05/06 06:00:19;;;;;;;4.30;1.50;;;6.60;96.30;;;;;;4895066;29;20262;-75
2021/05/06 06:02:44;;;;;;;2.33;1.43;;;6.60;96.30;;;;;;4887497;29;20425;-75
2021/05/06 06:05:10;;;;;;;3.57;2.70;;;6.50;96.30;;;;;;4894467;29;20853;-75
2021/05/06 06:07:36;;;;;;;1.93;1.73;;;6.60;96.30;;;;;;4898839;29;20193;-75
2021/05/06 06:10:03;;;;;;;4.50;1.73;;;7.00;96.30;;;;;;4899555;29;20431;-75
2021/05/06 06:12:28;;;;;;;2.07;1.60;;;7.80;96.30;;;;;;4914433;29;20219;-74
2021/05/06 06:15:09;;;;;;;2.70;1.60;;;9.00;95.50;;;;;;4895606;29;20430;-75
2021/05/06 06:17:41;;;;;;;2.50;1.20;;;9.30;91.60;;;;;;4878988;29;20199;-74
2021/05/06 06:20:07;;;;;;;1.57;1.30;;;9.80;90.00;;;;;;4881003;29;20489;-74
2021/05/06 06:22:33;;;;;;;2.07;1.63;;;9.60;91.00;;;;;;4879608;29;20457;-73
2021/05/06 06:25:01;;;;;;;3.40;1.50;;;9.00;90.80;;;;;;4892177;29;20460;-74
2021/05/06 06:27:28;;;;;;;5.27;1.20;;;8.30;92.70;;;;;;4899305;29;20560;-74
2021/05/06 06:29:53;;;;;;;3.57;1.57;;;7.40;93.90;;;;;;4897901;29;20448;-74
2021/05/06 06:32:19;;;;;;;3.77;1.50;;;7.30;96.30;;;;;;4899631;29;20484;-74
2021/05/06 06:34:44;;;;;;;2.30;1.20;;;7.00;96.30;;;;;;4898973;29;20161;-74
2021/05/06 06:37:10;;;;;;;1.97;1.37;;;6.80;96.30;;;;;;4907688;29;20228;-74
2021/05/06 06:39:39;;;;;;;2.60;1.23;;;6.60;96.30;;;;;;4898097;29;20550;-74
2021/05/06 06:42:07;;;;;;;3.13;1.30;;;6.60;96.30;;;;;;4897181;29;20169;-74
2021/05/06 06:44:33;;;;;;;2.33;1.20;;;7.30;96.30;;;;;;4880713;29;20425;-74
2021/05/06 06:47:03;;;;;;;1.93;1.17;;;8.20;94.10;;;;;;4879643;29;20449;-74
2021/05/06 06:49:31;;;;;;;4.00;1.80;;;8.20;95.90;;;;;;4896223;29;20509;-74
2021/05/06 06:51:57;;;;;;;2.67;1.50;;;7.70;96.00;;;;;;4898920;29;20475;-74
2021/05/06 06:54:24;;;;;;;3.60;1.50;;;6.90;96.30;;;;;;4899088;29;20418;-74
2021/05/06 06:56:50;;;;;;;8.57;1.53;;;7.00;96.30;;;;;;4880970;29;20466;-74
2021/05/06 06:59:16;;;;;;;4.33;1.47;;;6.50;96.30;;;;;;4892568;29;20430;-73
2021/05/06 07:01:41;;;;;;;1.93;1.13;;;6.30;96.30;;;;;;4886358;29;20188;-74
2021/05/06 07:04:07;;;;;;;2.60;1.43;;;6.40;96.30;;;;;;4894531;29;20187;-74
2021/05/06 07:06:33;;;;;;;3.30;1.47;;;6.30;96.30;;;;;;4898002;29;20209;-73
2021/05/06 07:08:58;;;;;;;2.87;1.60;;;6.40;96.30;;;;;;4898830;29;20181;-73
2021/05/06 07:11:24;;;;;;;2.33;1.30;;;6.60;96.30;;;;;;4894741;29;20173;-73
2021/05/06 07:13:49;;;;;;;2.50;1.37;;;7.20;96.30;;;;;;4898520;29;20187;-73
2021/05/06 07:16:15;;;;;;;1.97;1.10;;;7.90;96.30;;;;;;4896900;29;20657;-74
2021/05/06 07:18:40;;;;;;;1.77;1.40;;;8.00;96.30;;;;;;4898808;29;20192;-74
2021/05/06 07:21:06;;;;;;;1.10;1.00;;;8.80;96.30;;;;;;4898665;29;20177;-74
2021/05/06 07:23:34;;;;;;;1.47;1.10;;;9.20;94.80;;;;;;4897869;29;20255;-75
2021/05/06 07:26:00;;;;;;;1.33;1.03;;;9.00;93.00;;;;;;4898487;29;20193;-75
2021/05/06 07:28:33;;;;;;;1.20;1.00;;;10.10;91.90;;;;;;4885396;29;20507;-74
2021/05/06 07:31:03;;;;;;;2.60;1.17;;;10.60;90.20;;;;;;4879710;29;20422;-74
2021/05/06 07:33:30;;;;;;;1.40;1.10;;;10.30;88.80;;;;;;4897552;29;20823;-75
2021/05/06 07:35:57;;;;;;;2.43;1.10;;;10.50;87.80;;;;;;4893091;29;20496;-74
2021/05/06 07:38:23;;;;;;;4.80;1.37;;;10.00;90.80;;;;;;4896640;29;20425;-74
2021/05/06 07:40:49;;;;;;;2.47;1.30;;;10.10;88.80;;;;;;4878765;29;20430;-74
2021/05/06 07:43:14;;;;;;;5.33;1.20;;;9.50;90.20;;;;;;4879524;29;20524;-74
2021/05/06 07:45:40;;;;;;;2.07;1.00;;;8.80;93.40;;;;;;4885847;29;20466;-74
2021/05/06 07:48:06;;;;;;;1.63;1.10;;;8.40;92.50;;;;;;4885141;29;20189;-74
2021/05/06 07:50:31;;;;;;;1.80;1.23;;;8.20;93.80;;;;;;4878248;29;20188;-74
2021/05/06 07:53:07;;;;;;;2.57;1.20;;;7.80;96.30;;;;;;4879610;29;20257;-74
2021/05/06 07:55:33;;;;;;;3.47;1.43;;;7.70;95.90;;;;;;4879505;29;20268;-74
2021/05/06 07:58:00;;;;;;;3.13;1.50;;;7.60;95.40;;;;;;4879332;29;20433;-74
2021/05/06 08:00:26;;;;;;;5.07;1.87;;;7.60;95.00;;;;;;4879819;29;20411;-74
2021/05/06 08:02:53;;;;;;;6.67;1.37;;;8.90;93.70;;;;;;4895414;29;20421;-74
2021/05/06 08:05:19;;;;;;;2.30;1.20;;;9.40;91.20;;;;;;4887133;29;20505;-74
2021/05/06 08:07:45;;;;;;;2.10;1.10;;;8.90;88.90;;;;;;4896737;29;20424;-74
2021/05/06 08:10:12;;;;;;;2.00;1.80;;;8.90;91.00;;;;;;4892047;29;20425;-75
2021/05/06 08:12:37;;;;;;;3.80;1.20;;;8.40;90.40;;;;;;4889910;29;20547;-74
2021/05/06 08:15:07;;;;;;;4.23;1.40;;;7.80;91.80;;;;;;4894755;29;20417;-74
2021/05/06 08:17:37;;;;;;;4.97;1.70;;;7.50;94.00;;;;;;4892974;29;20197;-74
2021/05/06 08:20:07;;;;;;;3.77;1.50;;;7.50;93.40;;;;;;4897888;29;20402;-74
2021/05/06 08:22:34;;;;;;;5.23;1.50;;;7.50;93.80;;;;;;4897562;29;20413;-74
2021/05/06 08:25:00;;;;;;;1.70;1.40;;;7.50;96.00;;;;;;4896931;29;20746;-74
2021/05/06 08:27:25;;;;;;;3.57;1.30;;;7.60;95.10;;;;;;4894299;29;20456;-74
2021/05/06 08:29:51;;;;;;;6.17;2.00;;;7.70;95.00;;;;;;4897545;29;20185;-74
2021/05/06 08:32:16;;;;;;;3.83;1.73;;;8.00;94.60;;;;;;4897584;29;20547;-74
2021/05/06 08:34:42;;;;;;;3.77;1.57;;;8.10;94.00;;;;;;4893953;29;20182;-74
2021/05/06 08:37:08;;;;;;;4.47;2.57;;;9.00;92.30;;;;;;4886614;29;20211;-74
2021/05/06 08:39:33;;;;;;;4.83;1.73;;;9.80;91.70;;;;;;4896651;29;20197;-74
2021/05/06 08:42:00;;;;;;;4.63;2.00;;;10.30;86.10;;;;;;4895232;29;20209;-75
2021/05/06 08:44:31;;;;;;;4.37;2.60;;;9.40;90.10;;;;;;4896252;29;20219;-75
2021/05/06 08:47:04;;;;;;;2.20;1.40;;;9.10;89.30;;;;;;4895720;29;21032;-74
2021/05/06 08:49:35;;;;;;;3.47;1.80;;;9.80;89.20;;;;;;4896645;29;20517;-75
2021/05/06 08:52:04;;;;;;;2.53;1.27;;;9.50;88.70;;;;;;4895707;29;20945;-74
2021/05/06 08:54:29;;;;;;;3.47;1.43;;;9.00;88.60;;;;;;4896266;29;20441;-74
2021/05/06 08:56:57;;;;;;;4.83;1.37;;;8.90;89.70;;;;;;4891333;29;20473;-74
2021/05/06 08:59:22;;;;;;;2.50;1.50;;;8.70;88.40;;;;;;4888221;29;20177;-75
2021/05/06 09:01:48;;;;;;;1.63;1.10;;;8.70;91.50;;;;;;4895592;29;20500;-75
2021/05/06 09:04:14;;;;;;;3.73;1.50;;;8.70;90.60;;;;;;4896221;29;20181;-74
2021/05/06 09:07:15;;;;;;;2.40;1.27;;;8.80;89.30;;;;;;4895414;29;21048;-74
2021/05/06 09:09:48;;;;;;;4.17;1.53;;;9.00;84.80;;;;;;4825874;29;20980;-74
2021/05/06 09:12:14;;;;;;;2.43;1.50;;;9.40;88.70;;;;;;4888232;29;20436;-74
2021/05/06 09:14:42;;;;;;;3.03;1.40;;;9.60;85.30;;;;;;4896649;29;20422;-74
2021/05/06 09:17:25;;;;;;;6.60;1.80;;;9.70;87.10;;;;;;4896000;29;20220;-74
2021/05/06 09:20:03;;;;;;;3.00;1.50;;;9.40;86.40;;;;;;4896558;29;20795;-74
2021/05/06 09:22:34;;;;;;;2.57;1.37;;;9.40;84.60;;;;;;4896820;29;20405;-75
2021/05/06 09:25:23;;;;;;;2.97;1.20;;;9.50;84.30;;;;;;4895022;29;20483;-75
2021/05/06 09:28:29;;;;;;;2.63;1.50;;;10.10;84.90;;;;;;4895794;29;20922;-74
2021/05/06 09:30:59;;;;;;;1.50;1.00;;;10.20;85.40;;;;;;4893159;29;20477;-74
2021/05/06 09:33:29;;;;;;;3.17;1.60;;;9.50;83.90;;;;;;4892429;29;20418;-74
2021/05/06 09:35:55;;;;;;;8.00;1.60;;;10.10;82.40;;;;;;4892123;29;20480;-75
2021/05/06 09:38:24;;;;;;;3.53;1.37;;;10.80;82.80;;;;;;4911851;29;20422;-76
2021/05/06 09:40:50;;;;;;;3.37;1.50;;;10.50;82.40;;;;;;4888423;29;20445;-74
2021/05/06 09:43:31;;;;;;;3.70;2.10;;;10.50;81.30;;;;;;4881531;29;20426;-74
2021/05/06 09:45:58;;;;;;;2.93;1.60;;;10.20;81.10;;;;;;4881808;29;20205;-74
2021/05/06 09:48:24;;;;;;;3.73;1.77;;;10.50;81.80;;;;;;4880830;29;20485;-74
2021/05/06 09:50:58;;;;;;;2.10;1.27;;;10.60;82.90;;;;;;4881688;29;20438;-75
2021/05/06 09:53:26;;;;;;;5.10;1.53;;;11.10;80.80;;;;;;4879936;29;20268;-75
2021/05/06 09:55:56;;;;;;;5.17;1.57;;;10.80;79.70;;;;;;4892053;29;20905;-75
2021/05/06 09:58:28;;;;;;;3.63;1.93;;;10.30;82.50;;;;;;4899507;29;20424;-74
2021/05/06 10:00:54;;;;;;;2.60;1.50;;;9.90;82.80;;;;;;4898548;29;20467;-74
2021/05/06 10:03:33;;;;;;;1.70;1.30;;;9.70;84.00;;;;;;4899866;29;20445;-74
2021/05/06 10:06:14;;;;;;;2.90;1.43;;;10.50;81.70;;;;;;4888362;29;20931;-75
2021/05/06 10:08:40;;;;;;;3.33;1.77;;;10.50;79.90;;;;;;4881653;29;20445;-74
2021/05/06 10:11:16;;;;;;;5.50;1.60;;;10.30;81.30;;;;;;4880956;29;20434;-75
2021/05/06 10:13:43;;;;;;;2.50;1.20;;;10.60;82.20;;;;;;4881307;29;20248;-75
2021/05/06 10:16:10;;;;;;;2.90;1.87;;;10.60;82.90;;;;;;4891091;29;20906;-74
2021/05/06 10:18:40;;;;;;;2.50;1.43;;;11.00;81.10;;;;;;4893737;29;20461;-73
2021/05/06 10:21:10;;;;;;;2.33;1.10;;;11.50;81.80;;;;;;4891131;29;20458;-73
2021/05/06 10:23:36;;;;;;;1.77;1.10;;;11.90;80.30;;;;;;4884731;29;20811;-73
2021/05/06 10:26:03;;;;;;;2.67;1.43;;;12.00;76.30;;;;;;4894608;29;20489;-73
2021/05/06 10:28:32;;;;;;;4.70;1.30;;;11.70;79.90;;;;;;4889265;29;20434;-74
2021/05/06 10:31:00;;;;;;;4.87;1.60;;;11.40;81.20;;;;;;4881703;29;20832;-73
2021/05/06 10:33:28;;;;;;;3.23;1.70;;;11.00;81.20;;;;;;4898712;29;20445;-74
2021/05/06 10:35:55;;;;;;;2.50;1.33;;;10.40;82.80;;;;;;4899012;29;20500;-73
2021/05/06 10:38:20;;;;;;;2.20;1.50;;;10.00;82.70;;;;;;4891978;29;20428;-73
2021/05/06 10:40:46;;;;;;;1.73;1.07;;;9.60;85.50;;;;;;4880834;29;20422;-74
2021/05/06 10:43:23;;;;;;;4.30;1.63;;;9.30;83.10;;;;;;4880034;29;20182;-73
2021/05/06 10:46:04;;;;;;;3.60;1.80;;;9.20;86.30;;;;;;4884402;29;20240;-73
2021/05/06 10:49:01;;;;;;;2.80;1.40;;;9.00;88.70;;;;;;4896161;29;20415;-73
2021/05/06 10:51:36;;;;;;;2.33;1.37;;;9.30;86.90;;;;;;4896918;29;20850;-73
2021/05/06 10:54:26;;;;;;;3.57;1.30;;;9.10;89.10;;;;;;4898438;29;20472;-72
2021/05/06 10:56:51;;;;;;;3.00;1.40;;;8.90;89.80;;;;;;4897102;29;21036;-75
2021/05/06 10:59:28;;;;;;;1.40;1.30;;;8.40;96.30;;;;;;4898753;29;20417;-75
2021/05/06 11:01:54;;;;;;;2.87;2.00;;;7.70;96.30;;;;;;4889490;29;20669;-74
2021/05/06 11:04:35;;;;;;;2.10;1.23;;;7.60;96.30;;;;;;4887043;29;20425;-74
2021/05/06 11:07:19;;;;;;;2.30;1.10;;;8.00;96.30;;;;;;4887974;29;20456;-74
2021/05/06 11:09:46;;;;;;;5.30;1.20;;;8.50;96.30;;;;;;4882697;29;20415;-73
2021/05/06 11:12:15;;;;;;;2.60;1.27;;;8.90;96.30;;;;;;4898308;29;20504;-73
2021/05/06 11:14:59;;;;;;;2.50;1.57;;;8.70;93.90;;;;;;4898712;29;20479;-73
2021/05/06 11:17:26;;;;;;;3.10;1.20;;;8.50;96.30;;;;;;4896713;29;20484;-73
2021/05/06 11:19:52;;;;;;;2.07;1.20;;;8.40;92.40;;;;;;4900574;29;20470;-73
2021/05/06 11:22:43;;;;;;;1.60;1.07;;;8.20;93.00;;;;;;4892402;29;20889;-73
2021/05/06 11:25:40;;;;;;;2.50;1.13;;;8.40;95.80;;;;;;4879168;29;20797;-72
2021/05/06 11:28:26;;;;;;;5.13;1.23;;;8.60;91.30;;;;;;4896759;29;20986;-72
2021/05/06 11:30:54;;;;;;;4.93;1.30;;;8.70;90.30;;;;;;4898115;29;20449;-72
2021/05/06 11:33:23;;;;;;;3.47;1.10;;;8.70;89.10;;;;;;4879529;29;20443;-72
2021/05/06 11:35:55;;;;;;;3.10;1.20;;;9.00;88.30;;;;;;4886517;29;20640;-73
2021/05/06 11:38:22;;;;;;;3.17;1.20;;;9.20;90.90;;;;;;4897828;29;20978;-72
2021/05/06 11:40:48;;;;;;;1.87;1.33;;;9.30;89.90;;;;;;4888202;29;20521;-73
2021/05/06 11:43:23;;;;;;;2.70;1.13;;;9.30;89.30;;;;;;4897428;29;20527;-72
2021/05/06 11:45:48;;;;;;;3.13;1.40;;;9.30;89.00;;;;;;4889180;29;20205;-73
2021/05/06 11:48:16;;;;;;;2.87;1.20;;;9.20;90.80;;;;;;4896076;29;20480;-74
2021/05/06 11:50:45;;;;;;;2.80;1.10;;;8.90;89.40;;;;;;4893532;29;20184;-72
2021/05/06 11:53:15;;;;;;;4.07;1.03;;;8.80;87.90;;;;;;4879680;29;20560;-75
2021/05/06 11:55:43;;;;;;;3.13;1.30;;;8.70;88.30;;;;;;4879595;29;20469;-75
2021/05/06 11:58:11;;;;;;;1.83;1.13;;;8.40;91.20;;;;;;4877941;29;20973;-73
2021/05/06 12:00:39;;;;;;;4.00;1.40;;;8.40;90.80;;;;;;4891731;29;20448;-73
2021/05/06 12:03:10;;;;;;;1.77;1.43;;;8.30;92.50;;;;;;4887789;29;20427;-73
2021/05/06 12:05:56;;;;;;;1.73;1.10;;;8.20;91.40;;;;;;4878357;29;20783;-72
2021/05/06 12:08:25;;;;;;;1.60;1.00;;;7.90;95.70;;;;;;4882028;29;20425;-72
2021/05/06 12:10:52;;;;;;;4.13;1.67;;;7.90;94.10;;;;;;4898036;29;20421;-74
2021/05/06 12:13:28;;;;;;;3.20;1.10;;;8.00;95.80;;;;;;4898012;29;20417;-72
2021/05/06 12:16:12;;;;;;;2.33;1.20;;;8.20;96.10;;;;;;4897742;29;20477;-72
2021/05/06 12:18:38;;;;;;;2.00;1.10;;;8.40;93.00;;;;;;4897664;29;20546;-72
2021/05/06 12:21:05;;;;;;;2.30;1.10;;;8.30;92.80;;;;;;4897361;29;20512;-72
2021/05/06 12:23:30;;;;;;;2.10;1.37;;;8.20;93.10;;;;;;4896289;29;20648;-72
2021/05/06 12:25:56;;;;;;;3.27;1.80;;;8.20;96.30;;;;;;4895934;29;20476;-73
2021/05/06 12:28:21;;;;;;;1.80;1.10;;;8.20;96.30;;;;;;4896983;29;20654;-73
2021/05/06 12:30:47;;;;;;;3.10;1.00;;;8.10;96.30;;;;;;4897666;29;20205;-72
2021/05/06 12:33:12;;;;;;;2.93;1.40;;;7.80;94.50;;;;;;4896824;29;20177;-73
2021/05/06 12:35:52;;;;;;;5.73;1.40;;;7.60;96.30;;;;;;4894769;29;20213;-73
2021/05/06 12:38:17;;;;;;;2.70;1.50;;;7.70;96.30;;;;;;4887903;29;20185;-72
2021/05/06 12:40:44;;;;;;;3.80;2.30;;;7.80;96.30;;;;;;4878874;29;20414;-73
2021/05/06 12:43:29;;;;;;;1.77;1.30;;;8.00;96.30;;;;;;4883912;29;20181;-73
2021/05/06 12:46:03;;;;;;;15.13;1.57;;;7.70;96.30;;;;;;4897288;29;20452;-74
2021/05/06 12:48:43;;;;;;;2.43;1.30;;;7.80;96.30;;;;;;4884768;29;20434;-74
2021/05/06 12:51:13;;;;;;;3.23;1.40;;;7.80;96.30;;;;;;4887104;29;20512;-74
2021/05/06 12:54:01;;;;;;;2.00;0.97;;;7.90;96.30;;;;;;4897163;29;20419;-75
2021/05/06 12:56:32;;;;;;;2.40;1.33;;;7.70;96.30;;;;;;4896145;29;20499;-74
2021/05/06 12:59:25;;;;;;;2.37;1.30;;;7.60;96.30;;;;;;4896594;29;20412;-75
2021/05/06 13:01:51;;;;;;;2.40;1.17;;;7.60;96.30;;;;;;4894876;29;20452;-74
2021/05/06 13:04:17;;;;;;;1.20;1.07;;;7.70;96.30;;;;;;4896637;29;20412;-74
2021/05/06 13:06:43;;;;;;;2.10;1.40;;;7.50;96.30;;;;;;4895670;29;21005;-74
2021/05/06 13:09:13;;;;;;;2.60;1.87;;;7.70;96.30;;;;;;4897003;29;20245;-75
2021/05/06 13:11:39;;;;;;;2.57;1.50;;;8.00;96.30;;;;;;4896530;29;20185;-75
2021/05/06 13:14:05;;;;;;;3.00;1.70;;;8.10;96.30;;;;;;4896789;29;20420;-75
2021/05/06 13:16:42;;;;;;;2.17;1.30;;;8.50;96.30;;;;;;4896028;29;20216;-75
2021/05/06 13:19:16;;;;;;;2.97;1.47;;;8.80;96.30;;;;;;4896658;29;21017;-75
2021/05/06 13:21:56;;;;;;;3.57;1.60;;;9.10;96.30;;;;;;4896356;29;20425;-75
2021/05/06 13:24:21;;;;;;;7.33;1.40;;;9.20;96.30;;;;;;4885197;29;20459;-76
2021/05/06 13:26:48;;;;;;;2.23;1.27;;;9.20;95.60;;;;;;4883240;29;20471;-76
2021/05/06 13:29:16;;;;;;;5.53;1.97;;;8.90;92.90;;;;;;4877993;29;20189;-75
2021/05/06 13:31:43;;;;;;;4.30;1.23;;;9.00;92.40;;;;;;4883963;29;20452;-75
2021/05/06 13:34:12;;;;;;;1.93;1.03;;;9.20;96.30;;;;;;4878851;29;20948;-75
2021/05/06 13:36:39;;;;;;;1.80;1.30;;;9.40;94.20;;;;;;4877328;29;20476;-76
2021/05/06 13:39:07;;;;;;;2.70;1.00;;;9.40;94.20;;;;;;4882076;29;20426;-74
2021/05/06 13:41:44;;;;;;;3.77;1.17;;;9.30;95.70;;;;;;4877292;29;20414;-75
2021/05/06 13:44:13;;;;;;;2.60;1.30;;;9.40;96.30;;;;;;4894918;29;20431;-75
2021/05/06 13:46:53;;;;;;;1.33;0.80;;;9.30;92.80;;;;;;4896332;29;20841;-75
2021/05/06 13:49:27;;;;;;;3.07;1.13;;;9.00;92.80;;;;;;4894481;29;20964;-74
2021/05/06 13:51:53;;;;;;;1.50;1.10;;;8.80;95.30;;;;;;4895505;29;20484;-75
2021/05/06 13:54:21;;;;;;;1.43;1.00;;;8.70;95.10;;;;;;4878060;29;20473;-75
2021/05/06 13:56:47;;;;;;;3.93;1.10;;;8.70;94.40;;;;;;4876732;29;20834;-75
2021/05/06 13:59:13;;;;;;;2.70;0.90;;;8.70;93.80;;;;;;4880881;29;20433;-75
2021/05/06 14:01:39;;;;;;;1.77;1.03;;;8.70;93.00;;;;;;4896435;29;20248;-75
2021/05/06 14:04:05;;;;;;;1.40;0.83;;;8.70;91.30;;;;;;4887160;29;20461;-75
2021/05/06 14:06:31;;;;;;;1.60;0.70;;;8.70;94.70;;;;;;4895807;29;20472;-75
2021/05/06 14:08:57;;;;;;;1.50;0.73;;;8.80;91.10;;;;;;4893697;29;20437;-74
2021/05/06 14:11:26;;;;;;;1.57;0.77;;;8.90;90.00;;;;;;4895680;29;20635;-74
2021/05/06 14:13:57;;;;;;;1.10;0.77;;;8.70;89.80;;;;;;4895830;29;20173;-77
2021/05/06 14:16:23;;;;;;;1.53;0.80;;;8.80;90.40;;;;;;4878069;29;20529;-74
2021/05/06 14:18:50;;;;;;;1.00;0.60;;;8.80;93.60;;;;;;4876904;29;20414;-74
2021/05/06 14:21:17;;;;;;;2.20;0.70;;;8.90;89.40;;;;;;4876775;29;20452;-77
2021/05/06 14:23:45;;;;;;;1.03;0.77;;;9.10;90.40;;;;;;4880394;29;20414;-76
2021/05/06 14:26:11;;;;;;;1.60;0.97;;;9.70;89.30;;;;;;4874126;29;20438;-77
2021/05/06 14:28:38;;;;;;;1.10;0.80;;;10.00;88.40;;;;;;4885346;29;20488;-75
2021/05/06 14:31:04;;;;;;;1.93;0.80;;;9.70;87.90;;;;;;4893306;29;20533;-77
2021/05/06 14:33:29;;;;;;;1.47;0.90;;;9.60;88.40;;;;;;4897241;29;20796;-77
2021/05/06 14:35:55;;;;;;;1.20;0.80;;;9.80;90.40;;;;;;4903274;29;20204;-75
2021/05/06 14:38:20;;;;;;;1.70;1.03;;;10.00;93.50;;;;;;4887841;29;20589;-75
2021/05/06 14:40:46;;;;;;;3.73;1.10;;;10.30;89.60;;;;;;4881523;29;20201;-75
2021/05/06 14:43:12;;;;;;;2.10;1.10;;;10.10;89.80;;;;;;4895313;29;20556;-77
2021/05/06 14:45:37;;;;;;;1.00;0.80;;;9.70;89.60;;;;;;4898813;29;20248;-75
2021/05/06 14:48:04;;;;;;;1.73;1.00;;;9.70;90.00;;;;;;4898684;29;20184;-76
2021/05/06 14:50:31;;;;;;;1.77;0.97;;;9.30;91.60;;;;;;4898345;29;20221;-76
2021/05/06 14:52:57;;;;;;;1.03;0.90;;;9.20;94.30;;;;;;4886782;29;20498;-75
2021/05/06 14:55:24;;;;;;;1.27;0.90;;;9.30;91.00;;;;;;4881681;29;20449;-78
2021/05/06 14:57:50;;;;;;;1.80;1.00;;;9.30;91.20;;;;;;4881068;29;20793;-75
2021/05/06 15:00:17;;;;;;;1.43;1.17;;;9.20;92.10;;;;;;4896647;29;20459;-75
2021/05/06 15:02:42;;;;;;;1.63;1.20;;;9.20;92.20;;;;;;4883144;29;20429;-75
2021/05/06 15:05:09;;;;;;;3.60;2.70;;;9.20;92.40;;;;;;4900443;29;20417;-75
2021/05/06 15:07:34;;;;;;;2.03;1.60;;;9.30;91.60;;;;;;4899810;29;20208;-74
2021/05/06 15:10:00;;;;;;;1.10;0.77;;;9.30;93.20;;;;;;4899547;29;20429;-77
2021/05/06 15:12:25;;;;;;;1.33;0.90;;;9.20;93.40;;;;;;4897382;29;20715;-74
2021/05/06 15:14:51;;;;;;;1.10;0.80;;;9.40;92.40;;;;;;4899007;29;20244;-74
2021/05/06 15:17:16;;;;;;;1.30;0.90;;;9.50;93.10;;;;;;4899610;29;20256;-74
2021/05/06 15:19:42;;;;;;;4.73;3.77;;;9.40;92.30;;;;;;4900468;29;20264;-73
2021/05/06 15:22:07;;;;;;;1.67;1.50;;;9.50;90.30;;;;;;4900312;29;20646;-74
2021/05/06 15:24:33;;;;;;;1.17;1.00;;;9.80;93.00;;;;;;4900175;29;20256;-74
2021/05/06 15:26:58;;;;;;;1.20;0.90;;;9.80;89.70;;;;;;4899477;29;20996;-74
2021/05/06 15:29:24;;;;;;;1.27;0.97;;;9.60;89.80;;;;;;4900402;29;20189;-74
2021/05/06 15:31:49;;;;;;;0.97;0.87;;;9.40;89.70;;;;;;4900159;29;20271;-76
2021/05/06 15:34:15;;;;;;;1.00;0.90;;;9.40;90.60;;;;;;4899897;29;20209;-75
2021/05/06 15:36:40;;;;;;;1.40;1.00;;;9.50;90.20;;;;;;4897740;29;20243;-74
2021/05/06 15:39:07;;;;;;;1.50;0.87;;;9.20;93.20;;;;;;4899525;29;20589;-74
2021/05/06 15:41:32;;;;;;;1.13;0.87;;;9.10;93.90;;;;;;4897231;29;20529;-74
2021/05/06 15:43:58;;;;;;;1.20;1.10;;;9.10;92.40;;;;;;4899427;29;20468;-75
2021/05/06 15:46:24;;;;;;;1.10;0.80;;;9.20;93.70;;;;;;4899416;29;20224;-74
2021/05/06 15:48:49;;;;;;;1.50;0.97;;;9.40;93.30;;;;;;4898514;29;20207;-73
2021/05/06 15:51:15;;;;;;;1.53;1.13;;;9.20;93.00;;;;;;4900008;29;20177;-74
2021/05/06 15:53:43;;;;;;;1.20;0.70;;;9.10;94.70;;;;;;4899313;29;20555;-74
2021/05/06 15:56:08;;;;;;;1.23;0.87;;;8.90;93.90;;;;;;4899404;29;20291;-74
2021/05/06 15:58:35;;;;;;;1.20;0.93;;;8.70;94.30;;;;;;4899563;29;20448;-76
2021/05/06 16:01:01;;;;;;;1.97;1.23;;;8.90;93.20;;;;;;4892069;29;20629;-74
2021/05/06 16:03:30;;;;;;;1.30;1.03;;;8.80;94.50;;;;;;4898678;29;20479;-75
2021/05/06 16:05:55;;;;;;;2.10;0.97;;;8.80;93.60;;;;;;4899002;29;20720;-74
2021/05/06 16:08:23;;;;;;;1.17;0.90;;;8.90;94.00;;;;;;4913311;29;20452;-74
2021/05/06 16:10:50;;;;;;;1.20;0.80;;;8.90;96.30;;;;;;4899273;29;20173;-74
2021/05/06 16:13:19;;;;;;;1.60;1.00;;;8.90;95.40;;;;;;4897969;29;20445;-73
2021/05/06 16:15:49;;;;;;;1.60;1.00;;;8.60;96.30;;;;;;4898645;29;20893;-73
2021/05/06 16:18:20;;;;;;;1.00;0.80;;;8.60;96.30;;;;;;4897001;29;20417;-73
2021/05/06 16:20:46;;;;;;;1.60;0.90;;;8.70;94.70;;;;;;4889303;29;20779;-72
2021/05/06 16:23:12;;;;;;;2.20;0.90;;;8.60;96.30;;;;;;4895999;29;20431;-73
2021/05/06 16:25:39;;;;;;;1.80;0.90;;;8.50;96.30;;;;;;4897767;29;20681;-73
2021/05/06 16:28:06;;;;;;;2.67;0.90;;;8.50;96.30;;;;;;4894201;29;20453;-73
2021/05/06 16:30:32;;;;;;;2.80;1.00;;;8.50;96.30;;;;;;4898061;29;20430;-74
2021/05/06 16:33:03;;;;;;;2.13;1.10;;;8.40;96.30;;;;;;4894974;29;20429;-74
2021/05/06 16:35:31;;;;;;;3.00;1.00;;;8.40;95.90;;;;;;4893766;29;20243;-74
2021/05/06 16:38:03;;;;;;;2.10;1.73;;;8.40;95.80;;;;;;4893725;29;20422;-74
2021/05/06 16:43:14;;;;;;;1.20;0.97;;;8.40;95.10;;;;;;4891195;29;20800;-74
2021/05/06 16:45:43;;;;;;;2.40;1.20;;;8.30;96.30;;;;;;4895327;29;20204;-74
2021/05/06 16:48:11;;;;;;;3.77;1.40;;;8.20;95.10;;;;;;4892523;29;20425;-75
2021/05/06 16:50:37;;;;;;;2.27;1.30;;;8.10;96.30;;;;;;4889940;29;20516;-73
2021/05/06 16:53:03;;;;;;;3.50;1.33;;;8.20;96.30;;;;;;4890984;29;20962;-74
2021/05/06 16:55:29;;;;;;;2.30;1.30;;;8.20;96.30;;;;;;4887568;29;20464;-73
2021/05/06 16:57:54;;;;;;;1.50;1.30;;;8.20;96.30;;;;;;4895245;29;20173;-73
2021/05/06 17:00:21;;;;;;;7.20;4.10;;;8.20;95.90;;;;;;4896933;29;20557;-74
2021/05/06 17:02:49;;;;;;;5.63;1.90;;;8.20;96.30;;;;;;4897008;29;20264;-74
2021/05/06 17:05:14;;;;;;;2.60;2.40;;;8.00;96.30;;;;;;4896662;29;20432;-73
2021/05/06 17:07:40;;;;;;;3.90;3.07;;;7.90;96.30;;;;;;4896463;29;20410;-74
2021/05/06 17:10:07;;;;;;;11.70;7.53;;;8.00;96.30;;;;;;4897205;29;20173;-74
2021/05/06 17:12:33;;;;;;;4.03;2.60;;;7.80;96.30;;;;;;4896685;29;20440;-74
2021/05/06 17:14:59;;;;;;;4.03;3.50;;;7.80;96.30;;;;;;4888847;29;20914;-74
2021/05/06 17:17:25;;;;;;;5.00;4.43;;;7.70;96.30;;;;;;4896191;29;20276;-74
2021/05/06 17:19:51;;;;;;;2.07;1.40;;;7.70;96.30;;;;;;4895588;29;20786;-75
2021/05/06 17:22:16;;;;;;;1.50;1.40;;;7.70;96.30;;;;;;4896732;29;20177;-75
2021/05/06 17:24:42;;;;;;;3.40;1.80;;;7.70;96.30;;;;;;4895830;29;20166;-75
2021/05/06 17:27:07;;;;;;;2.17;1.63;;;7.70;96.30;;;;;;4883334;29;20205;-75
2021/05/06 17:29:33;;;;;;;2.83;1.60;;;7.70;96.30;;;;;;4896620;29;20245;-76
2021/05/06 17:31:58;;;;;;;2.30;1.47;;;7.60;96.30;;;;;;4890090;29;20272;-75
2021/05/06 17:34:24;;;;;;;4.00;2.07;;;7.50;96.30;;;;;;4896291;29;20192;-75
2021/05/06 17:36:49;;;;;;;2.53;2.17;;;7.50;96.30;;;;;;4894546;29;20216;-76
2021/05/06 17:39:15;;;;;;;2.50;1.63;;;7.40;96.30;;;;;;4896879;29;20185;-75
2021/05/06 17:41:40;;;;;;;1.93;1.30;;;7.40;96.30;;;;;;4895508;29;20189;-75
2021/05/06 17:44:06;;;;;;;3.03;1.67;;;7.40;96.30;;;;;;4895958;29;20228;-76
2021/05/06 17:46:32;;;;;;;3.70;1.73;;;7.30;96.30;;;;;;4885589;29;20214;-75
2021/05/06 17:48:58;;;;;;;1.87;1.40;;;7.30;96.30;;;;;;4877897;29;20642;-76
2021/05/06 17:51:23;;;;;;;4.53;3.00;;;7.20;96.30;;;;;;4898872;29;20417;-75
2021/05/06 17:53:49;;;;;;;3.33;2.70;;;7.20;96.30;;;;;;4910178;29;20197;-75
2021/05/06 17:56:15;;;;;;;3.90;3.10;;;7.30;96.30;;;;;;4906119;29;20561;-75
2021/05/06 17:58:42;;;;;;;2.50;1.97;;;7.30;96.30;;;;;;4903546;29;20180;-75
2021/05/06 18:01:09;;;;;;;4.23;1.50;;;7.20;96.30;;;;;;4900322;29;20421;-75
2021/05/06 18:03:36;;;;;;;1.30;1.20;;;7.10;96.30;;;;;;4900321;29;20898;-75
2021/05/06 18:06:02;;;;;;;2.90;1.37;;;6.90;96.30;;;;;;4899971;29;20524;-74
2021/05/06 18:08:27;;;;;;;2.07;1.40;;;6.80;96.30;;;;;;4899912;29;20961;-75
2021/05/06 18:11:05;;;;;;;1.60;1.50;;;6.70;96.30;;;;;;4898398;29;20658;-76
2021/05/06 18:13:31;;;;;;;1.93;1.73;;;6.40;96.30;;;;;;4898967;29;20165;-76
2021/05/06 18:15:56;;;;;;;2.10;1.73;;;6.50;96.30;;;;;;4899826;29;20515;-76
2021/05/06 18:18:22;;;;;;;1.87;1.40;;;6.20;96.30;;;;;;4899610;29;20182;-76